YYI weather

CLOSED Rivers Airport
Manitoba, Canada

Public forecast

Using degrees Celsius for public forecast. Weather courtesy of forecast.io.

METAR (pilot weather report)

Closest report is Brandon Municipal Airport, 15.2 nm (28.2 km) ESE. Retrieved 2019/05/19 17:00 UTC (49 minutes ago):

CYBR 191700Z 07021G29KT 15SM SCT045 BKN250 11/M03 A3016 RMK SC4CI3 SLP229

TAF (pilot weather forecast)

Closest forecast is Brandon Municipal Airport, 15.2 nm (28.2 km) ESE. Retrieved 2019/05/19 12:42 UTC (5 hours ago):

TAF TAF CYBR 191138Z 1912/1924 04012KT P6SM BKN250 FM191800 05015KT P6SM SCT040 BKN220 RMK NXT FCST BY 191800Z